Time;durP1;ratioP1;P1;durP2;ratioP2;P2;SDS_P1;SDS_P2;PMS_P1;PMS_P2;Temp;Humidity;BMP_temperature;BMP_pressure;BME280_temperature;BME280_humidity;BME280_pressure;Samples;Min_cycle;Max_cycle;Signal;HPM_P1;HPM_P2
2022/09/25 00:00:14;;;;;;;12.77;4.40;;;;;;;;;;5115046;28;20381;-76
2022/09/25 00:02:40;;;;;;;11.48;4.68;;;;;;;;;;5115259;28;20024;-76
2022/09/25 00:05:06;;;;;;;10.07;3.80;;;;;;;;;;5114963;28;20488;-76
2022/09/25 00:07:32;;;;;;;10.95;4.45;;;;;;;;;;5115213;28;20470;-76
2022/09/25 00:09:58;;;;;;;9.60;4.05;;;;;;;;;;5101131;28;20020;-76
2022/09/25 00:12:24;;;;;;;12.98;4.40;;;;;;;;;;5094593;28;20032;-76
2022/09/25 00:14:51;;;;;;;13.75;4.28;;;;;;;;;;5094682;28;20392;-76
2022/09/25 00:17:17;;;;;;;15.02;4.32;;;;;;;;;;5094234;28;20516;-76
2022/09/25 00:19:49;;;;;;;8.05;3.63;;;;;;;;;;5094520;28;20016;-76
2022/09/25 00:22:16;;;;;;;9.57;3.85;;;;;;;;;;5075866;28;20024;-76
2022/09/25 00:24:42;;;;;;;6.85;3.80;;;;;;;;;;5094367;28;20405;-76
2022/09/25 00:27:08;;;;;;;6.90;3.55;;;;;;;;;;5094244;28;20028;-76
2022/09/25 00:29:38;;;;;;;6.38;3.22;;;;;;;;;;5094115;28;20028;-76
2022/09/25 00:32:05;;;;;;;7.00;3.30;;;;;;;;;;5094107;28;20032;-76
2022/09/25 00:34:31;;;;;;;7.40;3.88;;;;;;;;;;5094143;28;20576;-76
2022/09/25 00:36:57;;;;;;;10.70;3.75;;;;;;;;;;5094106;28;20039;-76
2022/09/25 00:39:23;;;;;;;9.27;3.60;;;;;;;;;;5092781;28;20089;-76
2022/09/25 00:41:49;;;;;;;11.32;4.80;;;;;;;;;;5093966;28;20106;-76
2022/09/25 00:44:34;;;;;;;8.52;3.42;;;;;;;;;;5093963;28;20077;-76
2022/09/25 00:47:00;;;;;;;7.45;4.03;;;;;;;;;;5093883;28;20052;-76
2022/09/25 00:49:26;;;;;;;7.93;3.80;;;;;;;;;;5093862;28;20027;-76
2022/09/25 00:52:02;;;;;;;12.30;3.80;;;;;;;;;;5097019;28;20031;-76
2022/09/25 00:54:34;;;;;;;9.20;4.18;;;;;;;;;;5114095;28;20023;-75
2022/09/25 00:57:02;;;;;;;7.00;3.50;;;;;;;;;;5114396;28;20027;-76
2022/09/25 00:59:29;;;;;;;8.38;3.67;;;;;;;;;;5113870;28;20066;-76
2022/09/25 01:01:56;;;;;;;13.43;4.18;;;;;;;;;;5113947;28;20024;-76
2022/09/25 01:04:22;;;;;;;13.13;4.25;;;;;;;;;;5114131;28;20813;-76
2022/09/25 01:06:49;;;;;;;6.03;3.70;;;;;;;;;;5114101;28;20012;-76
2022/09/25 01:09:16;;;;;;;7.57;3.70;;;;;;;;;;5114249;28;20056;-76
2022/09/25 01:11:44;;;;;;;4.55;3.38;;;;;;;;;;5113945;28;20027;-76
2022/09/25 01:14:10;;;;;;;10.60;4.22;;;;;;;;;;5113990;28;20475;-76
2022/09/25 01:16:45;;;;;;;8.05;3.13;;;;;;;;;;5113809;28;20093;-76
2022/09/25 01:19:30;;;;;;;10.68;3.95;;;;;;;;;;5113837;28;20127;-75
2022/09/25 01:21:57;;;;;;;6.70;3.58;;;;;;;;;;5113914;28;20493;-76
2022/09/25 01:24:37;;;;;;;7.15;3.28;;;;;;;;;;5113857;28;20030;-76
2022/09/25 01:27:09;;;;;;;5.82;3.03;;;;;;;;;;5095062;28;20110;-76
2022/09/25 01:29:36;;;;;;;;;;;;;;;;;;5114066;28;20032;-75
2022/09/25 01:32:23;;;;;;;6.32;2.92;;;;;;;;;;5113355;28;19904;-76
2022/09/25 01:34:55;;;;;;;7.68;3.30;;;;;;;;;;5113504;28;20036;-76
2022/09/25 01:37:21;;;;;;;;;;;;;;;;;;5113995;28;20433;-76
2022/09/25 01:39:53;;;;;;;8.85;3.50;;;;;;;;;;5095019;28;19925;-76
2022/09/25 01:42:24;;;;;;;10.43;2.78;;;;;;;;;;5113495;28;20531;-76
2022/09/25 01:44:57;;;;;;;11.35;2.95;;;;;;;;;;5113232;28;20031;-76
2022/09/25 01:47:26;;;;;;;7.95;2.85;;;;;;;;;;5094770;28;20108;-76
2022/09/25 01:49:55;;;;;;;7.15;3.13;;;;;;;;;;5112915;28;20509;-76
2022/09/25 01:52:26;;;;;;;6.97;3.13;;;;;;;;;;5113096;28;20163;-76
2022/09/25 01:54:54;;;;;;;6.10;2.97;;;;;;;;;;5113213;28;20035;-76
2022/09/25 01:57:20;;;;;;;6.88;3.08;;;;;;;;;;5112788;28;20041;-76
2022/09/25 01:59:54;;;;;;;6.05;2.67;;;;;;;;;;5113204;28;20331;-76
2022/09/25 02:02:23;;;;;;;11.80;3.03;;;;;;;;;;5094550;28;20024;-76
2022/09/25 02:04:53;;;;;;;11.15;3.53;;;;;;;;;;5112989;28;20500;-76
2022/09/25 02:07:22;;;;;;;9.60;3.60;;;;;;;;;;5113005;28;20027;-76
2022/09/25 02:09:52;;;;;;;8.05;3.25;;;;;;;;;;5112567;28;20027;-76
2022/09/25 02:12:22;;;;;;;9.10;2.67;;;;;;;;;;5112765;28;20427;-75
2022/09/25 02:14:50;;;;;;;6.72;3.30;;;;;;;;;;5112771;28;20023;-76
2022/09/25 02:20:30;;;;;;;7.68;3.13;;;;;;;;;;5093978;28;20439;-75
2022/09/25 02:22:53;;;;;;;6.18;3.35;;;;;;;;;;5112862;28;20377;-76
2022/09/25 02:25:27;;;;;;;8.43;3.40;;;;;;;;;;5112615;28;20041;-76
2022/09/25 02:27:53;;;;;;;6.45;3.10;;;;;;;;;;5112007;28;20393;-76
2022/09/25 02:30:19;;;;;;;4.85;2.80;;;;;;;;;;5112410;28;20024;-75
2022/09/25 02:32:45;;;;;;;5.18;3.17;;;;;;;;;;5112402;28;20056;-76
2022/09/25 02:35:11;;;;;;;10.02;2.83;;;;;;;;;;5112396;28;20120;-75
2022/09/25 02:37:37;;;;;;;5.63;3.03;;;;;;;;;;5112438;28;20036;-76
2022/09/25 02:40:03;;;;;;;4.55;2.83;;;;;;;;;;5112206;28;20031;-75
2022/09/25 02:42:48;;;;;;;4.35;2.78;;;;;;;;;;5112379;28;20026;-75
2022/09/25 02:45:14;;;;;;;12.82;3.10;;;;;;;;;;5112169;28;20030;-76
2022/09/25 02:48:03;;;;;;;3.70;2.70;;;;;;;;;;5112138;28;20023;-76
2022/09/25 02:50:35;;;;;;;3.63;2.35;;;;;;;;;;5047275;28;20470;-76
2022/09/25 02:53:08;;;;;;;3.67;2.50;;;;;;;;;;5112262;28;20114;-76
2022/09/25 02:55:34;;;;;;;3.03;2.50;;;;;;;;;;5112045;28;20028;-76
2022/09/25 02:58:05;;;;;;;4.13;2.47;;;;;;;;;;5112117;28;20088;-76
2022/09/25 03:00:34;;;;;;;3.70;2.47;;;;;;;;;;5111907;28;20030;-76
2022/09/25 03:03:02;;;;;;;6.85;2.70;;;;;;;;;;5111238;28;20261;-76
2022/09/25 03:05:29;;;;;;;7.78;2.42;;;;;;;;;;5111907;28;20023;-76
2022/09/25 03:10:44;;;;;;;5.78;2.25;;;;;;;;;;5111836;28;20091;-76
2022/09/25 03:13:14;;;;;;;5.22;2.50;;;;;;;;;;5111860;28;20020;-76
2022/09/25 03:15:41;;;;;;;3.83;2.50;;;;;;;;;;5111809;28;20078;-76
2022/09/25 03:18:07;;;;;;;3.83;2.72;;;;;;;;;;5111618;28;20524;-76
2022/09/25 03:20:33;;;;;;;5.65;2.75;;;;;;;;;;5112016;28;20030;-76
2022/09/25 03:22:59;;;;;;;6.38;2.70;;;;;;;;;;5111809;28;20047;-75
2022/09/25 03:25:25;;;;;;;6.13;2.67;;;;;;;;;;5111875;28;20477;-76
2022/09/25 03:27:51;;;;;;;4.15;2.38;;;;;;;;;;5111679;28;20139;-76
2022/09/25 03:30:17;;;;;;;3.30;2.53;;;;;;;;;;5111277;28;20059;-75
2022/09/25 03:32:43;;;;;;;6.32;2.90;;;;;;;;;;5111422;28;20358;-76
2022/09/25 03:35:09;;;;;;;10.68;2.90;;;;;;;;;;5111298;28;20020;-76
2022/09/25 03:37:35;;;;;;;3.53;2.53;;;;;;;;;;5092663;28;20419;-76
2022/09/25 03:40:02;;;;;;;3.22;2.50;;;;;;;;;;5111183;28;20020;-75
2022/09/25 03:42:28;;;;;;;3.58;2.42;;;;;;;;;;5111288;28;20027;-76
2022/09/25 03:44:54;;;;;;;7.90;2.78;;;;;;;;;;5110990;28;20116;-76
2022/09/25 03:47:20;;;;;;;3.15;2.40;;;;;;;;;;5111244;28;20482;-76
2022/09/25 03:49:46;;;;;;;4.93;2.97;;;;;;;;;;5111172;28;20091;-75
2022/09/25 03:52:13;;;;;;;3.58;2.72;;;;;;;;;;5111379;28;20132;-75
2022/09/25 03:54:39;;;;;;;4.82;2.70;;;;;;;;;;5108434;28;20012;-75
2022/09/25 03:57:05;;;;;;;3.55;2.72;;;;;;;;;;5111073;28;20125;-75
2022/09/25 03:59:31;;;;;;;4.68;2.60;;;;;;;;;;5111025;28;20027;-76
2022/09/25 04:01:58;;;;;;;5.38;2.92;;;;;;;;;;5110993;28;20148;-76
2022/09/25 04:04:24;;;;;;;4.68;2.38;;;;;;;;;;5092614;28;20025;-76
2022/09/25 04:06:50;;;;;;;5.68;2.58;;;;;;;;;;5111129;28;20022;-76
2022/09/25 04:09:16;;;;;;;3.85;2.55;;;;;;;;;;5110975;28;20091;-76
2022/09/25 04:11:42;;;;;;;7.00;3.47;;;;;;;;;;5111164;28;20110;-76
2022/09/25 04:14:09;;;;;;;6.78;2.83;;;;;;;;;;5114162;28;20024;-76
2022/09/25 04:16:35;;;;;;;4.32;2.50;;;;;;;;;;5114655;28;20019;-76
2022/09/25 04:19:01;;;;;;;5.45;2.50;;;;;;;;;;5114481;28;20109;-75
2022/09/25 04:21:27;;;;;;;4.45;2.10;;;;;;;;;;5114545;28;20045;-76
2022/09/25 04:26:37;;;;;;;7.38;2.53;;;;;;;;;;5106519;28;20115;-75
2022/09/25 04:29:04;;;;;;;5.45;2.40;;;;;;;;;;5114720;28;20098;-76
2022/09/25 04:31:31;;;;;;;3.60;2.72;;;;;;;;;;5114346;28;20049;-75
2022/09/25 04:33:57;;;;;;;5.43;2.42;;;;;;;;;;5114523;28;20035;-76
2022/09/25 04:36:23;;;;;;;3.45;2.20;;;;;;;;;;5114523;28;20050;-75
2022/09/25 04:38:49;;;;;;;5.03;3.00;;;;;;;;;;5095773;28;20027;-76
2022/09/25 04:41:16;;;;;;;4.32;2.72;;;;;;;;;;5095833;28;20016;-76
2022/09/25 04:43:42;;;;;;;3.72;2.63;;;;;;;;;;5114331;28;20048;-76
2022/09/25 04:46:09;;;;;;;4.13;3.05;;;;;;;;;;5113937;28;20051;-76
2022/09/25 04:48:36;;;;;;;7.18;2.72;;;;;;;;;;5095824;28;20015;-76
2022/09/25 04:51:02;;;;;;;5.03;2.97;;;;;;;;;;5114043;28;20019;-76
2022/09/25 04:53:28;;;;;;;8.00;2.92;;;;;;;;;;5113980;28;20042;-75
2022/09/25 04:55:59;;;;;;;7.57;2.85;;;;;;;;;;5113717;28;20412;-76
2022/09/25 04:58:25;;;;;;;9.75;3.50;;;;;;;;;;5113748;28;20024;-76
2022/09/25 05:00:51;;;;;;;10.82;3.72;;;;;;;;;;5113960;28;20035;-75
2022/09/25 05:03:17;;;;;;;6.30;3.17;;;;;;;;;;5095711;28;20016;-75
2022/09/25 05:05:43;;;;;;;11.10;4.07;;;;;;;;;;5113745;28;20798;-76
2022/09/25 05:08:10;;;;;;;7.30;3.38;;;;;;;;;;5113648;28;20069;-75
2022/09/25 05:10:39;;;;;;;12.20;3.50;;;;;;;;;;5113620;28;20422;-75
2022/09/25 05:13:08;;;;;;;10.98;3.80;;;;;;;;;;5113760;28;20016;-75
2022/09/25 05:15:34;;;;;;;11.98;3.92;;;;;;;;;;5113613;28;20019;-75
2022/09/25 05:18:05;;;;;;;6.53;3.58;;;;;;;;;;5113456;28;20438;-76
2022/09/25 05:20:31;;;;;;;12.27;4.32;;;;;;;;;;5113494;28;20023;-76
2022/09/25 05:22:57;;;;;;;8.02;3.90;;;;;;;;;;5113801;28;20149;-75
2022/09/25 05:25:24;;;;;;;13.18;4.55;;;;;;;;;;5113037;28;20409;-76
2022/09/25 05:27:50;;;;;;;9.88;4.22;;;;;;;;;;5113492;28;20438;-76
2022/09/25 05:30:16;;;;;;;7.57;4.10;;;;;;;;;;5113714;28;20358;-76
2022/09/25 05:32:49;;;;;;;6.75;3.90;;;;;;;;;;5094175;28;20111;-75
2022/09/25 05:35:16;;;;;;;9.02;4.50;;;;;;;;;;5092969;28;20410;-75
2022/09/25 05:37:42;;;;;;;12.52;4.97;;;;;;;;;;5113468;28;20028;-76
2022/09/25 05:40:08;;;;;;;10.13;5.05;;;;;;;;;;5113389;28;20396;-75
2022/09/25 05:42:35;;;;;;;11.10;5.45;;;;;;;;;;5094395;28;20036;-76
2022/09/25 05:45:01;;;;;;;10.73;6.10;;;;;;;;;;5112972;28;20021;-76
2022/09/25 05:47:27;;;;;;;14.40;6.05;;;;;;;;;;5112714;28;20376;-76
2022/09/25 05:49:53;;;;;;;10.93;5.60;;;;;;;;;;5113047;28;20028;-76
2022/09/25 05:52:19;;;;;;;13.10;5.50;;;;;;;;;;5111169;28;20027;-75
2022/09/25 05:54:45;;;;;;;17.20;6.00;;;;;;;;;;5113297;28;20023;-76
2022/09/25 05:57:11;;;;;;;16.25;6.90;;;;;;;;;;5113096;28;20032;-76
2022/09/25 05:59:37;;;;;;;20.55;8.20;;;;;;;;;;5113177;28;20059;-76
2022/09/25 06:02:03;;;;;;;29.83;8.90;;;;;;;;;;5112738;28;20101;-75
2022/09/25 06:04:29;;;;;;;36.42;11.10;;;;;;;;;;5112780;28;20023;-76
2022/09/25 06:06:55;;;;;;;22.50;10.95;;;;;;;;;;5094888;28;20016;-76
2022/09/25 06:09:21;;;;;;;25.23;11.85;;;;;;;;;;5112840;28;20034;-75
2022/09/25 06:11:48;;;;;;;30.92;13.38;;;;;;;;;;5112698;28;20426;-75
2022/09/25 06:14:15;;;;;;;35.30;17.33;;;;;;;;;;5112537;28;20030;-75
2022/09/25 06:16:41;;;;;;;42.72;19.88;;;;;;;;;;5112516;28;20016;-75
2022/09/25 06:19:07;;;;;;;36.55;17.42;;;;;;;;;;5094053;28;20718;-75
2022/09/25 06:21:33;;;;;;;16.85;8.57;;;;;;;;;;5112563;28;20163;-75
2022/09/25 06:24:00;;;;;;;11.85;6.38;;;;;;;;;;5112658;28;20440;-76
2022/09/25 06:26:26;;;;;;;11.82;6.03;;;;;;;;;;5112414;28;20110;-75
2022/09/25 06:28:53;;;;;;;16.42;6.82;;;;;;;;;;5111925;28;20500;-76
2022/09/25 06:31:19;;;;;;;12.70;5.88;;;;;;;;;;5109060;28;20165;-75
2022/09/25 06:33:45;;;;;;;14.52;6.40;;;;;;;;;;5093414;28;20545;-75
2022/09/25 06:36:11;;;;;;;9.60;5.35;;;;;;;;;;5111261;28;20016;-76
2022/09/25 06:38:37;;;;;;;8.35;5.15;;;;;;;;;;5111339;28;20026;-76
2022/09/25 06:41:03;;;;;;;11.68;5.38;;;;;;;;;;5111728;28;20393;-76
2022/09/25 06:43:30;;;;;;;8.50;5.15;;;;;;;;;;5111758;28;20488;-75
2022/09/25 06:46:01;;;;;;;13.30;5.32;;;;;;;;;;5111551;28;20524;-75
2022/09/25 06:48:28;;;;;;;10.68;5.32;;;;;;;;;;5112052;28;20031;-76
2022/09/25 06:50:55;;;;;;;14.18;5.75;;;;;;;;;;5111737;28;20015;-76
2022/09/25 06:53:22;;;;;;;10.60;5.63;;;;;;;;;;5111734;28;20051;-75
2022/09/25 06:55:48;;;;;;;15.10;5.53;;;;;;;;;;5111766;28;20015;-76
2022/09/25 06:58:16;;;;;;;8.48;4.90;;;;;;;;;;5111891;28;20031;-75
2022/09/25 07:00:45;;;;;;;10.45;5.97;;;;;;;;;;5111880;28;20027;-76
2022/09/25 07:05:58;;;;;;;11.60;5.95;;;;;;;;;;5111624;28;20034;-76
2022/09/25 07:08:24;;;;;;;17.83;6.32;;;;;;;;;;5109932;28;20111;-76
2022/09/25 07:10:51;;;;;;;10.85;6.15;;;;;;;;;;5111862;28;20035;-76
2022/09/25 07:13:19;;;;;;;10.45;4.95;;;;;;;;;;5093147;28;20057;-76
2022/09/25 07:15:52;;;;;;;11.35;6.32;;;;;;;;;;5111954;28;20012;-75
2022/09/25 07:18:18;;;;;;;;;;;;;;;;;;5109132;28;20490;-76
2022/09/25 07:20:45;;;;;;;11.52;5.45;;;;;;;;;;5111318;28;19954;-75
2022/09/25 07:23:12;;;;;;;10.35;4.78;;;;;;;;;;5111407;28;20012;-75
2022/09/25 07:25:38;;;;;;;9.50;5.13;;;;;;;;;;5108713;28;20026;-76
2022/09/25 07:28:06;;;;;;;11.45;5.07;;;;;;;;;;5111383;28;20156;-76
2022/09/25 07:30:32;;;;;;;14.43;5.13;;;;;;;;;;5110576;28;20123;-76
2022/09/25 07:32:58;;;;;;;8.15;4.50;;;;;;;;;;5111138;28;20024;-76
2022/09/25 07:35:26;;;;;;;8.35;4.40;;;;;;;;;;5111367;28;20027;-76
2022/09/25 07:37:52;;;;;;;7.78;4.40;;;;;;;;;;5111304;28;20042;-75
2022/09/25 07:40:18;;;;;;;11.00;5.05;;;;;;;;;;5108535;28;20047;-76
2022/09/25 07:42:44;;;;;;;14.35;5.32;;;;;;;;;;5111038;28;20031;-76
2022/09/25 07:45:10;;;;;;;11.55;5.18;;;;;;;;;;5111169;28;20023;-76
2022/09/25 07:47:36;;;;;;;13.75;4.45;;;;;;;;;;5093380;28;20149;-76
2022/09/25 07:50:03;;;;;;;10.32;4.25;;;;;;;;;;5114613;28;20023;-76
2022/09/25 07:52:29;;;;;;;10.68;3.97;;;;;;;;;;5114617;28;20422;-75
2022/09/25 07:54:55;;;;;;;8.32;3.63;;;;;;;;;;5114885;28;20032;-77
2022/09/25 07:57:21;;;;;;;10.13;4.13;;;;;;;;;;5115473;28;20108;-76
2022/09/25 07:59:47;;;;;;;8.98;3.08;;;;;;;;;;5115378;28;20039;-76
2022/09/25 08:02:13;;;;;;;9.82;3.80;;;;;;;;;;5115134;28;20027;-76
2022/09/25 08:04:39;;;;;;;7.68;3.92;;;;;;;;;;5115236;28;20039;-76
2022/09/25 08:07:05;;;;;;;8.73;3.45;;;;;;;;;;5115199;28;20039;-75
2022/09/25 08:09:31;;;;;;;8.07;2.95;;;;;;;;;;5115035;28;20027;-76
2022/09/25 08:11:57;;;;;;;7.88;2.67;;;;;;;;;;5115069;28;20020;-76
2022/09/25 08:14:24;;;;;;;11.65;3.00;;;;;;;;;;5115431;28;20081;-77
2022/09/25 08:16:53;;;;;;;7.03;2.20;;;;;;;;;;5114659;28;20555;-76
2022/09/25 08:19:22;;;;;;;7.60;3.05;;;;;;;;;;5114960;28;20023;-76
2022/09/25 08:21:48;;;;;;;5.40;2.17;;;;;;;;;;5096563;28;20016;-77
2022/09/25 08:24:16;;;;;;;4.00;1.80;;;;;;;;;;5114928;28;20032;-76
2022/09/25 08:26:42;;;;;;;6.18;1.83;;;;;;;;;;5114696;28;20448;-76
2022/09/25 08:29:09;;;;;;;6.53;1.83;;;;;;;;;;5115649;28;20593;-78
2022/09/25 08:31:35;;;;;;;12.02;1.88;;;;;;;;;;5115903;28;20176;-79
2022/09/25 08:34:01;;;;;;;9.13;1.80;;;;;;;;;;5097243;28;20114;-78
2022/09/25 08:36:27;;;;;;;11.88;1.70;;;;;;;;;;5115417;28;20053;-79
2022/09/25 08:38:55;;;;;;;10.90;1.95;;;;;;;;;;5115473;28;20024;-78
2022/09/25 08:41:24;;;;;;;9.68;1.40;;;;;;;;;;5115005;28;20434;-77
2022/09/25 08:44:05;;;;;;;9.80;1.88;;;;;;;;;;5114899;28;20092;-79
2022/09/25 08:49:25;;;;;;;5.38;1.00;;;;;;;;;;5115197;28;20121;-77
2022/09/25 08:51:52;;;;;;;8.40;1.10;;;;;;;;;;5115211;28;20020;-79
2022/09/25 08:54:20;;;;;;;5.05;1.00;;;;;;;;;;5115147;28;20080;-78
2022/09/25 08:56:48;;;;;;;2.55;0.70;;;;;;;;;;5114506;28;20358;-78
2022/09/25 08:59:35;;;;;;;11.75;0.85;;;;;;;;;;5113304;28;20032;-77
2022/09/25 09:02:13;;;;;;;3.67;0.80;;;;;;;;;;5114109;28;20035;-77
2022/09/25 09:04:45;;;;;;;4.80;0.70;;;;;;;;;;5107980;28;20023;-78
2022/09/25 09:07:14;;;;;;;5.38;0.65;;;;;;;;;;5102107;28;20024;-77
2022/09/25 09:09:42;;;;;;;5.53;1.35;;;;;;;;;;5106423;28;20028;-75
2022/09/25 09:12:17;;;;;;;11.02;0.95;;;;;;;;;;5103678;28;20016;-75
2022/09/25 09:14:51;;;;;;;6.00;0.93;;;;;;;;;;5086595;28;20414;-76
2022/09/25 09:17:24;;;;;;;9.45;0.85;;;;;;;;;;5113423;28;20078;-75
2022/09/25 09:19:52;;;;;;;3.00;0.57;;;;;;;;;;5113296;28;20121;-76
2022/09/25 09:22:23;;;;;;;2.58;0.60;;;;;;;;;;5113374;28;20022;-75
2022/09/25 09:24:52;;;;;;;9.27;0.80;;;;;;;;;;5113515;28;20028;-75
2022/09/25 09:27:26;;;;;;;4.47;0.98;;;;;;;;;;5113301;28;20024;-75
2022/09/25 09:29:56;;;;;;;6.20;0.98;;;;;;;;;;5113388;28;20058;-73
2022/09/25 09:32:34;;;;;;;5.43;0.65;;;;;;;;;;5106549;28;20031;-76
2022/09/25 09:35:06;;;;;;;2.40;0.70;;;;;;;;;;5111980;28;20466;-75
2022/09/25 09:38:01;;;;;;;2.05;0.60;;;;;;;;;;5113393;28;20032;-76
2022/09/25 09:40:47;;;;;;;8.18;1.02;;;;;;;;;;5095899;28;20024;-76
2022/09/25 09:43:30;;;;;;;5.07;0.80;;;;;;;;;;5109969;28;20023;-75
2022/09/25 09:45:56;;;;;;;;;;;;;;;;;;5113629;28;20043;-75
2022/09/25 09:48:29;;;;;;;3.67;0.60;;;;;;;;;;5113245;28;19946;-74
2022/09/25 09:51:16;;;;;;;5.78;0.68;;;;;;;;;;5112979;28;20159;-76
2022/09/25 09:53:50;;;;;;;6.85;0.80;;;;;;;;;;5110200;28;20414;-75
2022/09/25 09:56:19;;;;;;;6.90;1.02;;;;;;;;;;5112363;28;20024;-76
2022/09/25 09:58:50;;;;;;;5.13;0.70;;;;;;;;;;5112583;28;20032;-76
2022/09/25 10:01:18;;;;;;;3.42;0.80;;;;;;;;;;5112109;28;20027;-75
2022/09/25 10:03:44;;;;;;;3.65;0.68;;;;;;;;;;5105225;28;20028;-75
2022/09/25 10:06:13;;;;;;;5.80;0.65;;;;;;;;;;5099131;28;20420;-74
2022/09/25 10:08:40;;;;;;;2.58;0.52;;;;;;;;;;5101538;28;20066;-74
2022/09/25 10:11:14;;;;;;;2.58;0.65;;;;;;;;;;5101603;28;20016;-75
2022/09/25 10:13:40;;;;;;;3.10;0.73;;;;;;;;;;5101907;28;20016;-75
2022/09/25 10:16:21;;;;;;;5.97;0.70;;;;;;;;;;5103651;28;20027;-74
2022/09/25 10:19:05;;;;;;;3.05;0.43;;;;;;;;;;5112537;28;20397;-75
2022/09/25 10:21:42;;;;;;;7.43;0.70;;;;;;;;;;5112721;28;20385;-77
2022/09/25 10:24:08;;;;;;;7.80;0.82;;;;;;;;;;5112598;28;20039;-75
2022/09/25 10:26:36;;;;;;;4.95;0.60;;;;;;;;;;5112544;28;20019;-75
2022/09/25 10:29:22;;;;;;;1.38;0.45;;;;;;;;;;5112589;28;20065;-76
2022/09/25 10:31:56;;;;;;;1.83;0.60;;;;;;;;;;5111590;28;20107;-75
2022/09/25 10:34:23;;;;;;;3.20;0.52;;;;;;;;;;5112384;28;20027;-77
2022/09/25 10:36:50;;;;;;;4.45;0.75;;;;;;;;;;5112647;28;20024;-77
2022/09/25 10:39:33;;;;;;;7.68;1.85;;;;;;;;;;5105285;28;20028;-76
2022/09/25 10:42:00;;;;;;;3.03;0.60;;;;;;;;;;5099952;28;20073;-76
2022/09/25 10:44:32;;;;;;;8.13;0.50;;;;;;;;;;5101830;28;20023;-76
2022/09/25 10:50:12;;;;;;;5.90;0.70;;;;;;;;;;5099248;28;20039;-76
2022/09/25 10:52:48;;;;;;;3.60;0.60;;;;;;;;;;5099769;28;20086;-76
2022/09/25 10:55:35;;;;;;;2.67;0.60;;;;;;;;;;5099179;28;20109;-76
2022/09/25 10:58:01;;;;;;;3.45;0.77;;;;;;;;;;5105206;28;20040;-76
2022/09/25 11:00:28;;;;;;;5.60;0.30;;;;;;;;;;5101843;28;20135;-75
2022/09/25 11:02:57;;;;;;;2.70;0.52;;;;;;;;;;5101672;28;20038;-76
2022/09/25 11:05:26;;;;;;;2.33;0.63;;;;;;;;;;5101953;28;20012;-77
2022/09/25 11:07:53;;;;;;;5.05;1.02;;;;;;;;;;5099523;28;20476;-77
2022/09/25 11:10:40;;;;;;;4.60;0.45;;;;;;;;;;5101957;28;20385;-77
2022/09/25 11:13:19;;;;;;;4.13;0.75;;;;;;;;;;5082812;28;20161;-77
2022/09/25 11:15:48;;;;;;;5.93;0.50;;;;;;;;;;5099261;28;20020;-77
2022/09/25 11:18:33;;;;;;;5.40;0.70;;;;;;;;;;5099369;28;20036;-77
2022/09/25 11:21:01;;;;;;;8.10;1.10;;;;;;;;;;5101989;28;20096;-77
2022/09/25 11:23:33;;;;;;;6.25;1.27;;;;;;;;;;5109526;28;20012;-77
2022/09/25 11:26:17;;;;;;;4.28;0.50;;;;;;;;;;5109340;28;20489;-77
2022/09/25 11:28:43;;;;;;;5.05;1.05;;;;;;;;;;5107427;28;20039;-77
2022/09/25 11:31:09;;;;;;;7.43;0.50;;;;;;;;;;5111596;27;20096;-76
2022/09/25 11:33:44;;;;;;;6.10;0.80;;;;;;;;;;5110804;28;20515;-77
2022/09/25 11:36:16;;;;;;;3.40;0.50;;;;;;;;;;5111360;28;20377;-76
2022/09/25 11:41:39;;;;;;;3.92;0.47;;;;;;;;;;5098730;28;20038;-76
2022/09/25 11:44:06;;;;;;;4.55;0.57;;;;;;;;;;5104826;28;20364;-76
2022/09/25 11:46:34;;;;;;;4.75;0.82;;;;;;;;;;5102747;28;20020;-77
2022/09/25 11:49:00;;;;;;;6.38;0.60;;;;;;;;;;5103746;28;20055;-77
2022/09/25 11:51:45;;;;;;;4.90;0.52;;;;;;;;;;5107606;28;20059;-77
2022/09/25 11:54:17;;;;;;;2.78;0.40;;;;;;;;;;5112934;28;20031;-77
2022/09/25 11:56:46;;;;;;;2.47;0.57;;;;;;;;;;5106877;28;20412;-77
2022/09/25 11:59:31;;;;;;;1.67;0.60;;;;;;;;;;5115503;28;20046;-77
2022/09/25 12:02:20;;;;;;;4.63;0.68;;;;;;;;;;5114401;28;20069;-77
2022/09/25 12:04:46;;;;;;;4.47;0.73;;;;;;;;;;5113374;28;20016;-77
2022/09/25 12:07:21;;;;;;;2.65;0.57;;;;;;;;;;5115782;28;20073;-77
2022/09/25 12:09:57;;;;;;;7.13;0.90;;;;;;;;;;5110345;27;20038;-77
2022/09/25 12:12:34;;;;;;;2.55;0.57;;;;;;;;;;5107853;28;20055;-77
2022/09/25 12:15:19;;;;;;;2.20;0.40;;;;;;;;;;5114187;28;20489;-77
2022/09/25 12:17:48;;;;;;;2.40;0.60;;;;;;;;;;5115624;28;20040;-77
2022/09/25 12:20:20;;;;;;;5.07;0.43;;;;;;;;;;5113564;28;20562;-77
2022/09/25 12:22:47;;;;;;;3.53;0.50;;;;;;;;;;5111729;28;20681;-77
2022/09/25 12:25:32;;;;;;;2.80;0.38;;;;;;;;;;5114851;28;20024;-77
2022/09/25 12:27:59;;;;;;;3.72;0.50;;;;;;;;;;5106603;28;20055;-79
2022/09/25 12:30:32;;;;;;;9.80;0.55;;;;;;;;;;5106646;28;20024;-79
2022/09/25 12:33:11;;;;;;;5.07;0.50;;;;;;;;;;5109686;27;20023;-77
2022/09/25 12:35:37;;;;;;;5.05;0.70;;;;;;;;;;5103407;28;20125;-77
2022/09/25 12:38:10;;;;;;;8.23;0.60;;;;;;;;;;5097903;28;20027;-78
2022/09/25 12:40:54;;;;;;;1.67;0.32;;;;;;;;;;5105603;28;20028;-77
2022/09/25 12:43:35;;;;;;;3.78;0.70;;;;;;;;;;5102118;28;20523;-77
2022/09/25 12:46:08;;;;;;;1.83;0.30;;;;;;;;;;5088857;28;20028;-77
2022/09/25 12:48:37;;;;;;;2.92;0.38;;;;;;;;;;5106901;28;20110;-78
2022/09/25 12:51:07;;;;;;;4.88;0.55;;;;;;;;;;5112765;28;20502;-77
2022/09/25 12:53:39;;;;;;;2.83;0.50;;;;;;;;;;5106853;28;20460;-77
2022/09/25 12:56:13;;;;;;;1.15;0.20;;;;;;;;;;5112052;28;20019;-77
2022/09/25 12:58:43;;;;;;;1.25;0.30;;;;;;;;;;5108961;28;20133;-77
2022/09/25 13:01:14;;;;;;;3.67;0.65;;;;;;;;;;5104396;28;20016;-78
2022/09/25 13:03:47;;;;;;;4.07;0.80;;;;;;;;;;5106791;28;20191;-78
2022/09/25 13:06:16;;;;;;;7.35;0.50;;;;;;;;;;5103925;28;20479;-79
2022/09/25 13:08:48;;;;;;;3.35;0.50;;;;;;;;;;5080244;28;20138;-80
2022/09/25 13:11:21;;;;;;;3.20;0.35;;;;;;;;;;5105711;28;20144;-80
2022/09/25 13:13:50;;;;;;;4.28;0.60;;;;;;;;;;5099721;28;20081;-76
2022/09/25 13:16:16;;;;;;;2.92;0.73;;;;;;;;;;5099835;28;20028;-75
2022/09/25 13:18:49;;;;;;;3.25;0.65;;;;;;;;;;5107188;28;20048;-77
2022/09/25 13:21:23;;;;;;;5.82;0.60;;;;;;;;;;5102282;28;20019;-76
2022/09/25 13:23:50;;;;;;;3.75;0.75;;;;;;;;;;5094983;28;20056;-79
2022/09/25 13:26:17;;;;;;;3.60;0.57;;;;;;;;;;5110672;28;20085;-77
2022/09/25 13:28:57;;;;;;;2.83;0.38;;;;;;;;;;5099113;28;20031;-77
2022/09/25 13:31:28;;;;;;;6.05;1.48;;;;;;;;;;5103196;28;20028;-78
2022/09/25 13:33:54;;;;;;;2.72;1.05;;;;;;;;;;5100905;28;20032;-77
2022/09/25 13:36:24;;;;;;;4.40;1.42;;;;;;;;;;5103550;28;20019;-78
2022/09/25 13:42:17;;;;;;;6.43;1.95;;;;;;;;;;5064896;28;20492;-76
2022/09/25 13:44:43;;;;;;;2.85;0.90;;;;;;;;;;5073558;28;20036;-77
2022/09/25 13:47:22;;;;;;;9.40;4.63;;;;;;;;;;5096440;28;20086;-77
2022/09/25 13:49:52;;;;;;;9.82;3.50;;;;;;;;;;5108206;28;20529;-76
2022/09/25 13:55:40;;;;;;;41.80;20.65;;;;;;;;;;5105882;28;20487;-78
2022/09/25 13:58:27;;;;;;;15.50;8.65;;;;;;;;;;5101681;28;20103;-79
2022/09/25 14:00:56;;;;;;;7.78;4.68;;;;;;;;;;5113971;28;20043;-82
2022/09/25 14:03:30;;;;;;;2.88;1.60;;;;;;;;;;5102165;28;20091;-81
2022/09/25 14:05:57;;;;;;;6.63;1.55;;;;;;;;;;5108773;28;20095;-80
2022/09/25 14:08:24;;;;;;;2.58;1.20;;;;;;;;;;5099042;28;20396;-78
2022/09/25 14:10:53;;;;;;;4.00;0.77;;;;;;;;;;5107094;28;20031;-79
2022/09/25 14:13:24;;;;;;;4.90;1.38;;;;;;;;;;5101941;28;20030;-78
2022/09/25 14:15:50;;;;;;;10.35;6.78;;;;;;;;;;5106076;28;20023;-79
2022/09/25 14:18:19;;;;;;;6.15;2.75;;;;;;;;;;5100989;28;20048;-80
2022/09/25 14:20:47;;;;;;;6.55;2.70;;;;;;;;;;5100835;28;20081;-80
2022/09/25 14:23:24;;;;;;;21.95;13.10;;;;;;;;;;5099498;28;20016;-80
2022/09/25 14:25:58;;;;;;;9.93;6.20;;;;;;;;;;5110280;28;20046;-80
2022/09/25 14:28:25;;;;;;;50.80;31.23;;;;;;;;;;5113933;28;20019;-79
2022/09/25 14:31:15;;;;;;;174.48;102.75;;;;;;;;;;5111377;28;20038;-82
